sensor_id;sensor_type;location;lat;lon;timestamp;P1;durP1;ratioP1;P2;durP2;ratioP2
11228;SDS011;5671;47.936;8.716;2022-12-05T00:00:11;6.13;;;5.53;;
11228;SDS011;5671;47.936;8.716;2022-12-05T00:02:39;6.90;;;6.20;;
11228;SDS011;5671;47.936;8.716;2022-12-05T00:05:06;7.17;;;6.30;;
11228;SDS011;5671;47.936;8.716;2022-12-05T00:07:34;8.07;;;6.63;;
11228;SDS011;5671;47.936;8.716;2022-12-05T00:10:01;7.27;;;6.47;;
11228;SDS011;5671;47.936;8.716;2022-12-05T00:12:29;8.37;;;6.97;;
11228;SDS011;5671;47.936;8.716;2022-12-05T00:14:56;8.07;;;6.80;;
11228;SDS011;5671;47.936;8.716;2022-12-05T00:17:24;9.00;;;7.30;;
11228;SDS011;5671;47.936;8.716;2022-12-05T00:19:51;7.70;;;6.80;;
11228;SDS011;5671;47.936;8.716;2022-12-05T00:22:18;7.80;;;6.90;;
11228;SDS011;5671;47.936;8.716;2022-12-05T00:24:45;7.60;;;6.60;;
11228;SDS011;5671;47.936;8.716;2022-12-05T00:27:12;6.90;;;5.97;;
11228;SDS011;5671;47.936;8.716;2022-12-05T00:29:39;7.13;;;5.90;;
11228;SDS011;5671;47.936;8.716;2022-12-05T00:32:05;6.77;;;6.07;;
11228;SDS011;5671;47.936;8.716;2022-12-05T00:34:34;7.40;;;6.00;;
11228;SDS011;5671;47.936;8.716;2022-12-05T00:37:01;7.33;;;6.03;;
11228;SDS011;5671;47.936;8.716;2022-12-05T00:39:28;6.93;;;6.23;;
11228;SDS011;5671;47.936;8.716;2022-12-05T00:41:55;6.70;;;5.70;;
11228;SDS011;5671;47.936;8.716;2022-12-05T00:44:22;7.10;;;6.10;;
11228;SDS011;5671;47.936;8.716;2022-12-05T00:46:49;7.93;;;6.50;;
11228;SDS011;5671;47.936;8.716;2022-12-05T00:49:16;7.17;;;6.40;;
11228;SDS011;5671;47.936;8.716;2022-12-05T00:51:44;7.33;;;6.40;;
11228;SDS011;5671;47.936;8.716;2022-12-05T00:54:13;7.20;;;6.03;;
11228;SDS011;5671;47.936;8.716;2022-12-05T00:56:41;8.37;;;6.40;;
11228;SDS011;5671;47.936;8.716;2022-12-05T00:59:11;7.77;;;6.73;;
11228;SDS011;5671;47.936;8.716;2022-12-05T01:01:42;8.37;;;7.17;;
11228;SDS011;5671;47.936;8.716;2022-12-05T01:04:10;9.03;;;7.30;;
11228;SDS011;5671;47.936;8.716;2022-12-05T01:06:39;12.40;;;8.13;;
11228;SDS011;5671;47.936;8.716;2022-12-05T01:09:08;8.20;;;6.87;;
11228;SDS011;5671;47.936;8.716;2022-12-05T01:11:37;7.63;;;6.80;;
11228;SDS011;5671;47.936;8.716;2022-12-05T01:14:04;8.90;;;7.43;;
11228;SDS011;5671;47.936;8.716;2022-12-05T01:16:32;8.53;;;6.83;;
11228;SDS011;5671;47.936;8.716;2022-12-05T01:19:03;8.40;;;6.20;;
11228;SDS011;5671;47.936;8.716;2022-12-05T01:21:31;7.03;;;6.03;;
11228;SDS011;5671;47.936;8.716;2022-12-05T01:23:58;6.80;;;6.10;;
11228;SDS011;5671;47.936;8.716;2022-12-05T01:26:26;6.27;;;5.67;;
11228;SDS011;5671;47.936;8.716;2022-12-05T01:28:53;7.13;;;6.03;;
11228;SDS011;5671;47.936;8.716;2022-12-05T01:31:22;6.60;;;5.70;;
11228;SDS011;5671;47.936;8.716;2022-12-05T01:33:50;6.60;;;5.90;;
11228;SDS011;5671;47.936;8.716;2022-12-05T01:36:18;6.83;;;6.03;;
11228;SDS011;5671;47.936;8.716;2022-12-05T01:38:45;6.30;;;5.70;;
11228;SDS011;5671;47.936;8.716;2022-12-05T01:41:13;6.50;;;5.70;;
11228;SDS011;5671;47.936;8.716;2022-12-05T01:43:56;6.93;;;6.20;;
11228;SDS011;5671;47.936;8.716;2022-12-05T01:46:25;6.73;;;6.00;;
11228;SDS011;5671;47.936;8.716;2022-12-05T01:48:55;6.87;;;6.17;;
11228;SDS011;5671;47.936;8.716;2022-12-05T01:51:25;6.53;;;5.93;;
11228;SDS011;5671;47.936;8.716;2022-12-05T01:53:53;8.23;;;6.37;;
11228;SDS011;5671;47.936;8.716;2022-12-05T01:56:19;7.10;;;5.90;;
11228;SDS011;5671;47.936;8.716;2022-12-05T01:58:47;6.57;;;5.93;;
11228;SDS011;5671;47.936;8.716;2022-12-05T02:01:15;6.97;;;6.27;;
11228;SDS011;5671;47.936;8.716;2022-12-05T02:03:44;6.67;;;5.93;;
11228;SDS011;5671;47.936;8.716;2022-12-05T02:06:13;8.47;;;7.40;;
11228;SDS011;5671;47.936;8.716;2022-12-05T02:08:41;8.10;;;6.43;;
11228;SDS011;5671;47.936;8.716;2022-12-05T02:11:16;8.30;;;6.80;;
11228;SDS011;5671;47.936;8.716;2022-12-05T02:13:50;8.63;;;6.70;;
11228;SDS011;5671;47.936;8.716;2022-12-05T02:16:30;7.97;;;6.93;;
11228;SDS011;5671;47.936;8.716;2022-12-05T02:19:09;8.50;;;7.13;;
11228;SDS011;5671;47.936;8.716;2022-12-05T02:22:01;8.33;;;6.60;;
11228;SDS011;5671;47.936;8.716;2022-12-05T02:24:58;8.43;;;7.50;;
11228;SDS011;5671;47.936;8.716;2022-12-05T02:27:56;9.17;;;6.87;;
11228;SDS011;5671;47.936;8.716;2022-12-05T02:30:53;9.70;;;7.60;;
11228;SDS011;5671;47.936;8.716;2022-12-05T02:33:25;8.87;;;7.03;;
11228;SDS011;5671;47.936;8.716;2022-12-05T02:36:01;7.87;;;7.07;;
11228;SDS011;5671;47.936;8.716;2022-12-05T02:38:33;7.93;;;7.13;;
11228;SDS011;5671;47.936;8.716;2022-12-05T02:41:11;8.30;;;7.37;;
11228;SDS011;5671;47.936;8.716;2022-12-05T02:43:46;8.17;;;7.23;;
11228;SDS011;5671;47.936;8.716;2022-12-05T02:46:21;9.23;;;7.03;;
11228;SDS011;5671;47.936;8.716;2022-12-05T02:48:49;8.43;;;7.00;;
11228;SDS011;5671;47.936;8.716;2022-12-05T02:51:20;9.23;;;8.00;;
11228;SDS011;5671;47.936;8.716;2022-12-05T02:53:49;9.47;;;7.97;;
11228;SDS011;5671;47.936;8.716;2022-12-05T02:56:25;9.63;;;8.07;;
11228;SDS011;5671;47.936;8.716;2022-12-05T02:58:55;10.83;;;9.03;;
11228;SDS011;5671;47.936;8.716;2022-12-05T03:01:24;12.23;;;9.80;;
11228;SDS011;5671;47.936;8.716;2022-12-05T03:03:54;9.30;;;7.27;;
11228;SDS011;5671;47.936;8.716;2022-12-05T03:06:23;10.63;;;7.97;;
11228;SDS011;5671;47.936;8.716;2022-12-05T03:08:53;10.18;;;7.93;;
11228;SDS011;5671;47.936;8.716;2022-12-05T03:11:24;8.73;;;7.47;;
11228;SDS011;5671;47.936;8.716;2022-12-05T03:13:54;9.03;;;7.83;;
11228;SDS011;5671;47.936;8.716;2022-12-05T03:16:26;12.97;;;7.97;;
11228;SDS011;5671;47.936;8.716;2022-12-05T03:18:58;9.33;;;7.47;;
11228;SDS011;5671;47.936;8.716;2022-12-05T03:21:33;9.37;;;6.83;;
11228;SDS011;5671;47.936;8.716;2022-12-05T03:24:03;9.50;;;7.83;;
11228;SDS011;5671;47.936;8.716;2022-12-05T03:26:36;9.17;;;7.53;;
11228;SDS011;5671;47.936;8.716;2022-12-05T03:29:14;8.67;;;7.77;;
11228;SDS011;5671;47.936;8.716;2022-12-05T03:31:50;10.53;;;7.80;;
11228;SDS011;5671;47.936;8.716;2022-12-05T03:34:30;9.37;;;7.30;;
11228;SDS011;5671;47.936;8.716;2022-12-05T03:37:04;8.60;;;7.60;;
11228;SDS011;5671;47.936;8.716;2022-12-05T03:39:36;9.80;;;7.77;;
11228;SDS011;5671;47.936;8.716;2022-12-05T03:42:08;11.07;;;7.73;;
11228;SDS011;5671;47.936;8.716;2022-12-05T03:44:40;10.43;;;8.30;;
11228;SDS011;5671;47.936;8.716;2022-12-05T03:47:13;9.80;;;7.80;;
11228;SDS011;5671;47.936;8.716;2022-12-05T03:49:46;8.27;;;7.23;;
11228;SDS011;5671;47.936;8.716;2022-12-05T03:52:16;10.43;;;8.07;;
11228;SDS011;5671;47.936;8.716;2022-12-05T03:54:50;9.80;;;7.70;;
11228;SDS011;5671;47.936;8.716;2022-12-05T03:57:20;10.33;;;8.17;;
11228;SDS011;5671;47.936;8.716;2022-12-05T03:59:51;9.37;;;7.87;;
11228;SDS011;5671;47.936;8.716;2022-12-05T04:02:24;11.27;;;9.13;;
11228;SDS011;5671;47.936;8.716;2022-12-05T04:04:57;11.87;;;9.70;;
11228;SDS011;5671;47.936;8.716;2022-12-05T04:07:27;11.83;;;9.37;;
11228;SDS011;5671;47.936;8.716;2022-12-05T04:09:58;14.03;;;10.67;;
11228;SDS011;5671;47.936;8.716;2022-12-05T04:12:28;12.67;;;9.77;;
11228;SDS011;5671;47.936;8.716;2022-12-05T04:14:58;12.77;;;9.47;;
11228;SDS011;5671;47.936;8.716;2022-12-05T04:17:30;17.20;;;11.37;;
11228;SDS011;5671;47.936;8.716;2022-12-05T04:20:02;23.47;;;11.20;;
11228;SDS011;5671;47.936;8.716;2022-12-05T04:22:50;27.27;;;11.83;;
11228;SDS011;5671;47.936;8.716;2022-12-05T04:25:17;56.53;;;12.70;;
11228;SDS011;5671;47.936;8.716;2022-12-05T04:28:01;24.83;;;11.83;;
11228;SDS011;5671;47.936;8.716;2022-12-05T04:30:37;70.43;;;13.07;;
11228;SDS011;5671;47.936;8.716;2022-12-05T04:33:09;72.47;;;13.53;;
11228;SDS011;5671;47.936;8.716;2022-12-05T04:35:40;54.43;;;13.93;;
11228;SDS011;5671;47.936;8.716;2022-12-05T04:38:12;34.07;;;12.90;;
11228;SDS011;5671;47.936;8.716;2022-12-05T04:40:43;51.42;;;13.48;;
11228;SDS011;5671;47.936;8.716;2022-12-05T04:43:14;22.77;;;12.70;;
11228;SDS011;5671;47.936;8.716;2022-12-05T04:45:43;18.40;;;11.73;;
11228;SDS011;5671;47.936;8.716;2022-12-05T04:48:13;16.40;;;11.10;;
11228;SDS011;5671;47.936;8.716;2022-12-05T04:50:43;16.17;;;11.23;;
11228;SDS011;5671;47.936;8.716;2022-12-05T04:53:11;16.13;;;11.27;;
11228;SDS011;5671;47.936;8.716;2022-12-05T04:55:41;16.10;;;11.07;;
11228;SDS011;5671;47.936;8.716;2022-12-05T04:58:12;17.73;;;12.50;;
11228;SDS011;5671;47.936;8.716;2022-12-05T05:00:44;15.97;;;11.77;;
11228;SDS011;5671;47.936;8.716;2022-12-05T05:03:20;15.30;;;11.60;;
11228;SDS011;5671;47.936;8.716;2022-12-05T05:05:53;15.97;;;11.30;;
11228;SDS011;5671;47.936;8.716;2022-12-05T05:08:22;13.37;;;11.60;;
11228;SDS011;5671;47.936;8.716;2022-12-05T05:10:53;15.87;;;11.00;;
11228;SDS011;5671;47.936;8.716;2022-12-05T05:13:29;13.60;;;10.77;;
11228;SDS011;5671;47.936;8.716;2022-12-05T05:15:55;13.43;;;9.63;;
11228;SDS011;5671;47.936;8.716;2022-12-05T05:18:24;11.73;;;10.03;;
11228;SDS011;5671;47.936;8.716;2022-12-05T05:20:51;10.83;;;9.67;;
11228;SDS011;5671;47.936;8.716;2022-12-05T05:23:18;13.17;;;10.20;;
11228;SDS011;5671;47.936;8.716;2022-12-05T05:25:45;12.23;;;9.97;;
11228;SDS011;5671;47.936;8.716;2022-12-05T05:28:17;13.27;;;9.53;;
11228;SDS011;5671;47.936;8.716;2022-12-05T05:30:44;13.20;;;9.73;;
11228;SDS011;5671;47.936;8.716;2022-12-05T05:33:11;12.33;;;9.20;;
11228;SDS011;5671;47.936;8.716;2022-12-05T05:35:39;11.93;;;9.83;;
11228;SDS011;5671;47.936;8.716;2022-12-05T05:38:19;11.37;;;9.63;;
11228;SDS011;5671;47.936;8.716;2022-12-05T05:40:45;13.17;;;11.13;;
11228;SDS011;5671;47.936;8.716;2022-12-05T05:43:12;14.50;;;11.27;;
11228;SDS011;5671;47.936;8.716;2022-12-05T05:45:39;15.33;;;11.37;;
11228;SDS011;5671;47.936;8.716;2022-12-05T05:48:06;15.30;;;11.70;;
11228;SDS011;5671;47.936;8.716;2022-12-05T05:50:33;12.70;;;10.20;;
11228;SDS011;5671;47.936;8.716;2022-12-05T05:53:01;13.57;;;10.37;;
11228;SDS011;5671;47.936;8.716;2022-12-05T05:55:28;13.80;;;11.73;;
11228;SDS011;5671;47.936;8.716;2022-12-05T05:57:55;12.47;;;10.70;;
11228;SDS011;5671;47.936;8.716;2022-12-05T06:00:22;13.03;;;10.23;;
11228;SDS011;5671;47.936;8.716;2022-12-05T06:02:49;14.87;;;11.40;;
11228;SDS011;5671;47.936;8.716;2022-12-05T06:05:16;12.93;;;10.60;;
11228;SDS011;5671;47.936;8.716;2022-12-05T06:08:03;14.30;;;11.83;;
11228;SDS011;5671;47.936;8.716;2022-12-05T06:10:49;13.03;;;10.90;;
11228;SDS011;5671;47.936;8.716;2022-12-05T06:13:16;13.70;;;10.93;;
11228;SDS011;5671;47.936;8.716;2022-12-05T06:15:43;14.67;;;10.37;;
11228;SDS011;5671;47.936;8.716;2022-12-05T06:18:09;13.83;;;10.87;;
11228;SDS011;5671;47.936;8.716;2022-12-05T06:20:37;12.13;;;10.47;;
11228;SDS011;5671;47.936;8.716;2022-12-05T06:23:05;11.87;;;9.97;;
11228;SDS011;5671;47.936;8.716;2022-12-05T06:25:32;12.03;;;9.13;;
11228;SDS011;5671;47.936;8.716;2022-12-05T06:28:02;12.63;;;9.53;;
11228;SDS011;5671;47.936;8.716;2022-12-05T06:30:42;10.13;;;9.03;;
11228;SDS011;5671;47.936;8.716;2022-12-05T06:33:23;11.00;;;8.33;;
11228;SDS011;5671;47.936;8.716;2022-12-05T06:35:59;9.50;;;8.17;;
11228;SDS011;5671;47.936;8.716;2022-12-05T06:38:29;10.47;;;8.33;;
11228;SDS011;5671;47.936;8.716;2022-12-05T06:40:56;12.77;;;8.87;;
11228;SDS011;5671;47.936;8.716;2022-12-05T06:43:23;10.10;;;8.37;;
11228;SDS011;5671;47.936;8.716;2022-12-05T06:45:50;9.83;;;8.73;;
11228;SDS011;5671;47.936;8.716;2022-12-05T06:48:16;9.67;;;8.37;;
11228;SDS011;5671;47.936;8.716;2022-12-05T06:50:47;10.17;;;8.53;;
11228;SDS011;5671;47.936;8.716;2022-12-05T06:53:14;10.10;;;8.73;;
11228;SDS011;5671;47.936;8.716;2022-12-05T06:55:42;9.47;;;8.47;;
11228;SDS011;5671;47.936;8.716;2022-12-05T06:58:09;8.53;;;7.53;;
11228;SDS011;5671;47.936;8.716;2022-12-05T07:00:36;7.80;;;7.00;;
11228;SDS011;5671;47.936;8.716;2022-12-05T07:03:20;10.33;;;7.73;;
11228;SDS011;5671;47.936;8.716;2022-12-05T07:05:47;10.27;;;7.30;;
11228;SDS011;5671;47.936;8.716;2022-12-05T07:08:14;12.93;;;8.20;;
11228;SDS011;5671;47.936;8.716;2022-12-05T07:10:48;14.40;;;9.47;;
11228;SDS011;5671;47.936;8.716;2022-12-05T07:16:26;11.77;;;9.67;;
11228;SDS011;5671;47.936;8.716;2022-12-05T07:19:54;14.53;;;9.60;;
11228;SDS011;5671;47.936;8.716;2022-12-05T07:23:13;13.73;;;9.63;;
11228;SDS011;5671;47.936;8.716;2022-12-05T07:26:03;14.77;;;10.37;;
11228;SDS011;5671;47.936;8.716;2022-12-05T07:29:10;15.10;;;10.57;;
11228;SDS011;5671;47.936;8.716;2022-12-05T07:32:08;14.43;;;11.03;;
11228;SDS011;5671;47.936;8.716;2022-12-05T07:34:37;13.03;;;9.73;;
11228;SDS011;5671;47.936;8.716;2022-12-05T07:37:25;11.63;;;9.30;;
11228;SDS011;5671;47.936;8.716;2022-12-05T07:39:53;11.57;;;8.47;;
11228;SDS011;5671;47.936;8.716;2022-12-05T07:42:22;9.80;;;8.07;;
11228;SDS011;5671;47.936;8.716;2022-12-05T07:48:22;8.90;;;7.57;;
11228;SDS011;5671;47.936;8.716;2022-12-05T07:51:09;8.70;;;7.13;;
11228;SDS011;5671;47.936;8.716;2022-12-05T07:53:37;10.07;;;7.50;;
11228;SDS011;5671;47.936;8.716;2022-12-05T07:56:06;11.60;;;9.10;;
11228;SDS011;5671;47.936;8.716;2022-12-05T07:58:35;12.53;;;8.63;;
11228;SDS011;5671;47.936;8.716;2022-12-05T08:01:09;7.30;;;6.20;;
11228;SDS011;5671;47.936;8.716;2022-12-05T08:03:38;9.53;;;7.40;;
11228;SDS011;5671;47.936;8.716;2022-12-05T08:06:08;12.63;;;10.20;;
11228;SDS011;5671;47.936;8.716;2022-12-05T08:08:39;9.30;;;7.93;;
11228;SDS011;5671;47.936;8.716;2022-12-05T08:11:15;7.17;;;6.43;;
11228;SDS011;5671;47.936;8.716;2022-12-05T08:31:07;8.00;;;7.17;;
11228;SDS011;5671;47.936;8.716;2022-12-05T08:37:40;8.30;;;5.87;;
11228;SDS011;5671;47.936;8.716;2022-12-05T08:40:48;6.63;;;5.63;;
11228;SDS011;5671;47.936;8.716;2022-12-05T08:43:19;6.50;;;5.47;;
11228;SDS011;5671;47.936;8.716;2022-12-05T08:45:56;7.63;;;5.70;;
11228;SDS011;5671;47.936;8.716;2022-12-05T08:51:28;9.97;;;7.70;;
11228;SDS011;5671;47.936;8.716;2022-12-05T08:54:04;8.90;;;7.30;;
11228;SDS011;5671;47.936;8.716;2022-12-05T08:56:46;8.13;;;6.10;;
11228;SDS011;5671;47.936;8.716;2022-12-05T08:59:21;7.50;;;6.10;;
11228;SDS011;5671;47.936;8.716;2022-12-05T09:02:12;8.17;;;5.73;;
11228;SDS011;5671;47.936;8.716;2022-12-05T09:04:40;5.63;;;4.87;;
11228;SDS011;5671;47.936;8.716;2022-12-05T09:07:09;7.13;;;5.97;;
11228;SDS011;5671;47.936;8.716;2022-12-05T09:09:39;7.07;;;5.37;;
11228;SDS011;5671;47.936;8.716;2022-12-05T09:12:09;7.97;;;6.30;;
11228;SDS011;5671;47.936;8.716;2022-12-05T09:14:37;7.57;;;6.30;;
11228;SDS011;5671;47.936;8.716;2022-12-05T09:17:08;8.13;;;6.27;;
11228;SDS011;5671;47.936;8.716;2022-12-05T09:22:22;6.87;;;6.10;;
11228;SDS011;5671;47.936;8.716;2022-12-05T09:24:52;7.90;;;6.13;;
11228;SDS011;5671;47.936;8.716;2022-12-05T09:27:19;6.53;;;5.77;;
11228;SDS011;5671;47.936;8.716;2022-12-05T09:29:46;7.23;;;5.53;;
11228;SDS011;5671;47.936;8.716;2022-12-05T09:32:15;8.67;;;5.83;;
11228;SDS011;5671;47.936;8.716;2022-12-05T09:34:43;8.33;;;6.70;;
11228;SDS011;5671;47.936;8.716;2022-12-05T09:37:11;8.23;;;7.00;;
11228;SDS011;5671;47.936;8.716;2022-12-05T09:39:38;8.57;;;7.47;;
11228;SDS011;5671;47.936;8.716;2022-12-05T09:42:12;7.47;;;5.90;;
11228;SDS011;5671;47.936;8.716;2022-12-05T09:47:53;7.53;;;5.90;;
11228;SDS011;5671;47.936;8.716;2022-12-05T09:50:25;6.53;;;5.90;;
11228;SDS011;5671;47.936;8.716;2022-12-05T09:52:57;12.93;;;11.10;;
11228;SDS011;5671;47.936;8.716;2022-12-05T09:55:42;7.27;;;5.93;;
11228;SDS011;5671;47.936;8.716;2022-12-05T09:58:17;6.60;;;5.87;;
11228;SDS011;5671;47.936;8.716;2022-12-05T10:00:50;7.63;;;5.90;;
11228;SDS011;5671;47.936;8.716;2022-12-05T10:03:21;6.73;;;5.97;;
11228;SDS011;5671;47.936;8.716;2022-12-05T10:05:55;6.50;;;5.63;;
11228;SDS011;5671;47.936;8.716;2022-12-05T10:15:14;9.53;;;5.53;;
11228;SDS011;5671;47.936;8.716;2022-12-05T10:18:11;6.63;;;5.93;;
11228;SDS011;5671;47.936;8.716;2022-12-05T10:20:53;6.47;;;5.63;;
11228;SDS011;5671;47.936;8.716;2022-12-05T10:24:05;5.60;;;5.07;;
11228;SDS011;5671;47.936;8.716;2022-12-05T10:26:42;7.23;;;6.00;;
11228;SDS011;5671;47.936;8.716;2022-12-05T10:32:20;7.63;;;5.80;;
11228;SDS011;5671;47.936;8.716;2022-12-05T10:35:14;6.80;;;5.67;;
11228;SDS011;5671;47.936;8.716;2022-12-05T10:38:10;5.83;;;5.20;;
11228;SDS011;5671;47.936;8.716;2022-12-05T10:40:45;6.13;;;5.53;;
11228;SDS011;5671;47.936;8.716;2022-12-05T10:43:30;6.37;;;5.20;;
11228;SDS011;5671;47.936;8.716;2022-12-05T10:46:04;6.07;;;5.37;;
11228;SDS011;5671;47.936;8.716;2022-12-05T10:48:41;5.30;;;4.80;;
11228;SDS011;5671;47.936;8.716;2022-12-05T10:51:10;6.20;;;4.93;;
11228;SDS011;5671;47.936;8.716;2022-12-05T10:53:40;5.93;;;5.30;;
11228;SDS011;5671;47.936;8.716;2022-12-05T10:59:01;5.63;;;5.10;;
11228;SDS011;5671;47.936;8.716;2022-12-05T11:01:30;5.80;;;5.00;;
11228;SDS011;5671;47.936;8.716;2022-12-05T11:03:58;6.73;;;5.43;;
11228;SDS011;5671;47.936;8.716;2022-12-05T11:06:30;7.37;;;6.67;;
11228;SDS011;5671;47.936;8.716;2022-12-05T11:08:58;8.57;;;7.77;;
11228;SDS011;5671;47.936;8.716;2022-12-05T11:11:30;7.37;;;6.60;;
11228;SDS011;5671;47.936;8.716;2022-12-05T11:14:04;5.43;;;4.67;;
11228;SDS011;5671;47.936;8.716;2022-12-05T11:16:54;5.33;;;4.83;;
11228;SDS011;5671;47.936;8.716;2022-12-05T11:19:34;6.90;;;6.20;;
11228;SDS011;5671;47.936;8.716;2022-12-05T11:22:05;8.90;;;8.03;;
11228;SDS011;5671;47.936;8.716;2022-12-05T11:24:44;5.83;;;5.23;;
11228;SDS011;5671;47.936;8.716;2022-12-05T11:27:18;4.93;;;4.40;;
11228;SDS011;5671;47.936;8.716;2022-12-05T11:29:52;6.83;;;6.10;;
11228;SDS011;5671;47.936;8.716;2022-12-05T11:32:27;4.97;;;4.13;;
11228;SDS011;5671;47.936;8.716;2022-12-05T11:34:56;5.70;;;5.17;;
11228;SDS011;5671;47.936;8.716;2022-12-05T11:37:34;4.43;;;4.03;;
11228;SDS011;5671;47.936;8.716;2022-12-05T11:40:13;4.53;;;4.13;;
11228;SDS011;5671;47.936;8.716;2022-12-05T11:42:44;3.93;;;3.53;;
11228;SDS011;5671;47.936;8.716;2022-12-05T11:45:33;4.47;;;4.03;;
11228;SDS011;5671;47.936;8.716;2022-12-05T11:48:19;4.37;;;3.73;;
11228;SDS011;5671;47.936;8.716;2022-12-05T11:50:59;5.37;;;4.13;;
11228;SDS011;5671;47.936;8.716;2022-12-05T11:53:41;3.73;;;3.43;;
11228;SDS011;5671;47.936;8.716;2022-12-05T11:56:45;4.20;;;3.80;;
11228;SDS011;5671;47.936;8.716;2022-12-05T11:59:40;4.23;;;3.83;;
11228;SDS011;5671;47.936;8.716;2022-12-05T12:02:29;4.33;;;3.93;;
11228;SDS011;5671;47.936;8.716;2022-12-05T12:05:11;3.97;;;3.57;;
11228;SDS011;5671;47.936;8.716;2022-12-05T12:07:46;4.10;;;3.73;;
11228;SDS011;5671;47.936;8.716;2022-12-05T12:10:32;3.90;;;3.50;;
11228;SDS011;5671;47.936;8.716;2022-12-05T12:13:13;3.80;;;3.50;;
11228;SDS011;5671;47.936;8.716;2022-12-05T12:15:52;4.33;;;3.90;;
11228;SDS011;5671;47.936;8.716;2022-12-05T12:18:46;4.80;;;3.53;;
11228;SDS011;5671;47.936;8.716;2022-12-05T12:21:30;4.03;;;3.60;;
11228;SDS011;5671;47.936;8.716;2022-12-05T12:24:25;3.87;;;3.57;;
11228;SDS011;5671;47.936;8.716;2022-12-05T12:27:09;4.07;;;3.70;;
11228;SDS011;5671;47.936;8.716;2022-12-05T12:29:55;3.77;;;3.47;;
11228;SDS011;5671;47.936;8.716;2022-12-05T12:33:36;4.00;;;3.63;;
11228;SDS011;5671;47.936;8.716;2022-12-05T12:35:59;3.90;;;3.60;;
11228;SDS011;5671;47.936;8.716;2022-12-05T12:38:46;3.70;;;3.40;;
11228;SDS011;5671;47.936;8.716;2022-12-05T12:41:32;4.97;;;4.07;;
11228;SDS011;5671;47.936;8.716;2022-12-05T12:47:49;4.63;;;4.10;;
11228;SDS011;5671;47.936;8.716;2022-12-05T12:50:27;4.60;;;4.10;;
11228;SDS011;5671;47.936;8.716;2022-12-05T12:53:11;4.37;;;3.97;;
11228;SDS011;5671;47.936;8.716;2022-12-05T13:23:16;6.07;;;4.27;;
11228;SDS011;5671;47.936;8.716;2022-12-05T13:29:46;4.17;;;3.77;;
11228;SDS011;5671;47.936;8.716;2022-12-05T13:32:28;4.17;;;3.77;;
11228;SDS011;5671;47.936;8.716;2022-12-05T13:35:08;3.97;;;3.60;;
11228;SDS011;5671;47.936;8.716;2022-12-05T13:41:32;4.37;;;3.97;;
11228;SDS011;5671;47.936;8.716;2022-12-05T13:44:25;4.13;;;3.77;;
11228;SDS011;5671;47.936;8.716;2022-12-05T13:46:57;4.60;;;4.10;;
11228;SDS011;5671;47.936;8.716;2022-12-05T13:49:35;3.97;;;3.60;;
11228;SDS011;5671;47.936;8.716;2022-12-05T13:52:09;4.17;;;3.77;;
11228;SDS011;5671;47.936;8.716;2022-12-05T13:54:52;4.73;;;3.80;;
11228;SDS011;5671;47.936;8.716;2022-12-05T13:57:47;9.53;;;8.53;;
11228;SDS011;5671;47.936;8.716;2022-12-05T14:00:25;7.73;;;6.93;;
11228;SDS011;5671;47.936;8.716;2022-12-05T14:02:55;7.53;;;6.40;;
11228;SDS011;5671;47.936;8.716;2022-12-05T14:05:40;6.13;;;5.53;;
11228;SDS011;5671;47.936;8.716;2022-12-05T14:11:21;11.10;;;9.57;;
11228;SDS011;5671;47.936;8.716;2022-12-05T14:13:48;7.90;;;7.07;;
11228;SDS011;5671;47.936;8.716;2022-12-05T14:23:51;15.67;;;13.33;;
11228;SDS011;5671;47.936;8.716;2022-12-05T14:26:12;13.07;;;10.73;;
11228;SDS011;5671;47.936;8.716;2022-12-05T14:29:05;14.20;;;11.40;;
11228;SDS011;5671;47.936;8.716;2022-12-05T14:31:48;12.77;;;9.37;;
11228;SDS011;5671;47.936;8.716;2022-12-05T14:34:29;8.27;;;7.33;;
11228;SDS011;5671;47.936;8.716;2022-12-05T14:36:59;7.00;;;6.30;;
11228;SDS011;5671;47.936;8.716;2022-12-05T14:43:16;9.57;;;8.20;;
11228;SDS011;5671;47.936;8.716;2022-12-05T14:46:01;8.50;;;7.63;;
11228;SDS011;5671;47.936;8.716;2022-12-05T14:48:42;7.07;;;6.37;;
11228;SDS011;5671;47.936;8.716;2022-12-05T14:54:30;6.83;;;5.70;;
11228;SDS011;5671;47.936;8.716;2022-12-05T14:56:59;6.60;;;5.97;;
11228;SDS011;5671;47.936;8.716;2022-12-05T14:59:36;7.03;;;6.33;;
11228;SDS011;5671;47.936;8.716;2022-12-05T15:02:13;9.63;;;7.30;;
11228;SDS011;5671;47.936;8.716;2022-12-05T15:04:45;8.13;;;7.33;;
11228;SDS011;5671;47.936;8.716;2022-12-05T15:52:27;6.43;;;4.87;;
11228;SDS011;5671;47.936;8.716;2022-12-05T15:55:03;8.70;;;6.90;;
11228;SDS011;5671;47.936;8.716;2022-12-05T15:57:40;8.97;;;7.47;;
11228;SDS011;5671;47.936;8.716;2022-12-05T16:00:13;11.27;;;8.53;;
11228;SDS011;5671;47.936;8.716;2022-12-05T16:02:53;9.73;;;8.47;;
11228;SDS011;5671;47.936;8.716;2022-12-05T16:05:29;15.57;;;11.70;;
11228;SDS011;5671;47.936;8.716;2022-12-05T16:08:06;13.10;;;9.60;;
11228;SDS011;5671;47.936;8.716;2022-12-05T16:10:40;12.57;;;10.07;;
11228;SDS011;5671;47.936;8.716;2022-12-05T16:13:27;12.70;;;10.03;;
11228;SDS011;5671;47.936;8.716;2022-12-05T16:15:59;9.03;;;6.77;;
11228;SDS011;5671;47.936;8.716;2022-12-05T16:18:28;6.73;;;5.70;;
11228;SDS011;5671;47.936;8.716;2022-12-05T16:21:00;7.10;;;6.40;;
11228;SDS011;5671;47.936;8.716;2022-12-05T16:23:28;7.60;;;5.80;;
11228;SDS011;5671;47.936;8.716;2022-12-05T16:26:17;7.33;;;6.53;;
11228;SDS011;5671;47.936;8.716;2022-12-05T16:28:59;10.00;;;7.73;;
11228;SDS011;5671;47.936;8.716;2022-12-05T16:31:51;9.53;;;7.83;;
11228;SDS011;5671;47.936;8.716;2022-12-05T16:34:25;16.43;;;13.47;;
11228;SDS011;5671;47.936;8.716;2022-12-05T16:37:18;23.40;;;18.70;;
11228;SDS011;5671;47.936;8.716;2022-12-05T16:39:57;14.00;;;11.13;;
11228;SDS011;5671;47.936;8.716;2022-12-05T16:42:28;12.37;;;10.43;;
11228;SDS011;5671;47.936;8.716;2022-12-05T16:45:04;12.17;;;9.50;;
11228;SDS011;5671;47.936;8.716;2022-12-05T16:47:52;11.87;;;9.47;;
11228;SDS011;5671;47.936;8.716;2022-12-05T16:50:29;14.50;;;10.73;;
11228;SDS011;5671;47.936;8.716;2022-12-05T16:53:00;12.43;;;10.53;;
11228;SDS011;5671;47.936;8.716;2022-12-05T16:55:29;11.60;;;10.37;;
11228;SDS011;5671;47.936;8.716;2022-12-05T16:58:00;11.40;;;10.10;;
11228;SDS011;5671;47.936;8.716;2022-12-05T17:00:27;11.77;;;9.63;;
11228;SDS011;5671;47.936;8.716;2022-12-05T17:02:55;12.03;;;10.27;;
11228;SDS011;5671;47.936;8.716;2022-12-05T17:05:22;10.83;;;8.67;;
11228;SDS011;5671;47.936;8.716;2022-12-05T17:07:49;10.80;;;9.17;;
11228;SDS011;5671;47.936;8.716;2022-12-05T17:10:18;8.97;;;7.77;;
11228;SDS011;5671;47.936;8.716;2022-12-05T17:12:45;10.50;;;7.40;;
11228;SDS011;5671;47.936;8.716;2022-12-05T17:15:12;8.57;;;7.60;;
11228;SDS011;5671;47.936;8.716;2022-12-05T17:17:42;8.87;;;7.73;;
11228;SDS011;5671;47.936;8.716;2022-12-05T17:20:09;7.70;;;6.60;;
11228;SDS011;5671;47.936;8.716;2022-12-05T17:22:40;10.63;;;6.43;;
11228;SDS011;5671;47.936;8.716;2022-12-05T17:25:12;10.33;;;8.67;;
11228;SDS011;5671;47.936;8.716;2022-12-05T17:27:48;14.43;;;12.80;;
11228;SDS011;5671;47.936;8.716;2022-12-05T17:30:15;11.23;;;9.13;;
11228;SDS011;5671;47.936;8.716;2022-12-05T17:32:42;10.70;;;8.10;;
11228;SDS011;5671;47.936;8.716;2022-12-05T17:35:11;8.93;;;7.93;;
11228;SDS011;5671;47.936;8.716;2022-12-05T17:37:40;8.07;;;6.90;;
11228;SDS011;5671;47.936;8.716;2022-12-05T17:40:07;10.10;;;7.73;;
11228;SDS011;5671;47.936;8.716;2022-12-05T17:42:36;8.80;;;7.67;;
11228;SDS011;5671;47.936;8.716;2022-12-05T17:45:03;10.27;;;8.90;;
11228;SDS011;5671;47.936;8.716;2022-12-05T17:47:34;11.20;;;8.47;;
11228;SDS011;5671;47.936;8.716;2022-12-05T17:50:01;9.20;;;8.20;;
11228;SDS011;5671;47.936;8.716;2022-12-05T17:52:29;9.40;;;8.40;;
11228;SDS011;5671;47.936;8.716;2022-12-05T17:54:56;8.60;;;7.67;;
11228;SDS011;5671;47.936;8.716;2022-12-05T17:57:23;8.80;;;7.17;;
11228;SDS011;5671;47.936;8.716;2022-12-05T17:59:51;10.20;;;8.00;;
11228;SDS011;5671;47.936;8.716;2022-12-05T18:02:18;10.23;;;8.73;;
11228;SDS011;5671;47.936;8.716;2022-12-05T18:04:45;10.20;;;9.17;;